createdAt,value
2022-07-25T00:00:10.562Z,5.84
2022-07-25T00:01:32.475Z,6.30
2022-07-25T00:02:34.250Z,5.71
2022-07-25T00:03:36.249Z,5.74
2022-07-25T00:04:41.740Z,5.27
2022-07-25T00:05:44.396Z,5.53
2022-07-25T00:06:46.690Z,6.11
2022-07-25T00:07:49.059Z,6.51
2022-07-25T00:08:50.767Z,6.34
2022-07-25T00:09:52.448Z,6.37
2022-07-25T00:10:54.189Z,6.27
2022-07-25T00:11:55.870Z,5.96
2022-07-25T00:12:57.577Z,5.89
2022-07-25T00:13:59.361Z,6.18
2022-07-25T00:15:01.014Z,6.63
2022-07-25T00:16:02.761Z,6.38
2022-07-25T00:17:04.442Z,5.68
2022-07-25T00:18:06.241Z,6.12
2022-07-25T00:19:07.922Z,5.94
2022-07-25T00:20:09.844Z,6.36
2022-07-25T00:21:12.625Z,5.98
2022-07-25T00:22:14.364Z,5.38
2022-07-25T00:23:16.040Z,5.52
2022-07-25T00:24:18.285Z,5.70
2022-07-25T00:25:19.960Z,5.84
2022-07-25T00:26:21.605Z,6.08
2022-07-25T00:27:23.337Z,5.59
2022-07-25T00:28:25.044Z,4.94
2022-07-25T00:29:26.717Z,5.17
2022-07-25T00:30:28.546Z,5.51
2022-07-25T00:31:30.287Z,5.63
2022-07-25T00:32:32.094Z,5.86
2022-07-25T00:33:33.942Z,5.99
2022-07-25T00:34:35.678Z,5.47
2022-07-25T00:35:37.344Z,6.01
2022-07-25T00:36:39.219Z,5.57
2022-07-25T00:37:40.879Z,5.77
2022-07-25T00:38:42.611Z,5.32
2022-07-25T00:39:44.395Z,5.37
2022-07-25T00:40:46.126Z,5.49
2022-07-25T00:41:56.053Z,5.82
2022-07-25T00:42:57.757Z,5.41
2022-07-25T00:43:59.582Z,5.34
2022-07-25T00:45:01.368Z,5.37
2022-07-25T00:46:03.455Z,5.08
2022-07-25T00:47:05.843Z,4.69
2022-07-25T00:48:08.260Z,5.40
2022-07-25T00:49:10.077Z,5.48
2022-07-25T00:50:11.946Z,4.86
2022-07-25T00:51:15.241Z,5.10
2022-07-25T00:52:17.344Z,4.64
2022-07-25T00:53:19.342Z,4.99
2022-07-25T00:54:22.019Z,5.02
2022-07-25T00:55:25.293Z,4.82
2022-07-25T00:56:26.995Z,5.12
2022-07-25T00:57:28.703Z,5.64
2022-07-25T00:58:30.433Z,5.07
2022-07-25T00:59:32.117Z,5.49
2022-07-25T01:00:33.871Z,4.96
2022-07-25T01:01:37.322Z,4.96
2022-07-25T01:02:39.433Z,4.74
2022-07-25T01:03:41.184Z,4.97
2022-07-25T01:04:42.927Z,5.11
2022-07-25T01:05:44.822Z,5.25
2022-07-25T01:06:46.882Z,5.15
2022-07-25T01:07:48.701Z,5.08
2022-07-25T01:08:51.003Z,5.09
2022-07-25T01:09:53.489Z,4.55
2022-07-25T01:10:55.422Z,4.67
2022-07-25T01:11:57.094Z,4.77
2022-07-25T01:12:59.031Z,4.42
2022-07-25T01:14:00.748Z,4.88
2022-07-25T01:15:02.475Z,4.91
2022-07-25T01:16:04.897Z,4.97
2022-07-25T01:17:06.732Z,4.53
2022-07-25T01:18:08.507Z,5.26
2022-07-25T01:19:10.362Z,5.16
2022-07-25T01:20:23.927Z,4.78
2022-07-25T01:21:26.477Z,4.56
2022-07-25T01:22:28.189Z,4.81
2022-07-25T01:23:30.019Z,5.02
2022-07-25T01:24:33.879Z,5.02
2022-07-25T01:25:35.688Z,4.74
2022-07-25T01:26:38.384Z,5.20
2022-07-25T01:27:41.830Z,5.91
2022-07-25T01:28:43.528Z,5.81
2022-07-25T01:29:45.206Z,5.57
2022-07-25T01:30:46.946Z,6.35
2022-07-25T01:31:48.681Z,5.83
2022-07-25T01:32:50.772Z,5.89
2022-07-25T01:33:52.470Z,5.91
2022-07-25T01:34:54.165Z,6.29
2022-07-25T01:35:55.981Z,6.14
2022-07-25T01:36:57.619Z,5.98
2022-07-25T01:37:59.320Z,5.95
2022-07-25T01:39:01.151Z,5.47
2022-07-25T01:40:05.951Z,5.74
2022-07-25T01:41:07.631Z,5.79
2022-07-25T01:42:09.382Z,5.69
2022-07-25T01:43:12.121Z,5.51
2022-07-25T01:44:13.886Z,5.36
2022-07-25T01:45:15.715Z,5.44
2022-07-25T01:46:18.450Z,5.54
2022-07-25T01:47:20.335Z,5.15
2022-07-25T01:48:22.078Z,5.15
2022-07-25T01:49:26.686Z,5.28
2022-07-25T01:50:28.463Z,5.53
2022-07-25T01:51:30.166Z,5.08
2022-07-25T01:52:32.081Z,5.36
2022-07-25T01:53:33.790Z,5.50
2022-07-25T01:54:37.767Z,5.43
2022-07-25T01:55:39.521Z,5.26
2022-07-25T01:56:46.982Z,5.59
2022-07-25T01:57:50.306Z,4.95
2022-07-25T01:58:52.408Z,4.79
2022-07-25T01:59:54.057Z,4.99
2022-07-25T02:00:57.046Z,5.30
2022-07-25T02:01:59.402Z,5.42
2022-07-25T02:03:19.415Z,4.88
2022-07-25T02:04:21.132Z,5.23
2022-07-25T02:05:22.860Z,4.89
2022-07-25T02:06:24.527Z,4.90
2022-07-25T02:07:26.309Z,4.99
2022-07-25T02:08:29.660Z,5.21
2022-07-25T02:09:32.113Z,5.21
2022-07-25T02:10:33.858Z,5.34
2022-07-25T02:11:36.338Z,5.26
2022-07-25T02:12:38.115Z,5.64
2022-07-25T02:13:39.796Z,5.30
2022-07-25T02:14:41.492Z,5.45
2022-07-25T02:15:43.231Z,5.14
2022-07-25T02:16:44.980Z,5.03
2022-07-25T02:17:46.823Z,5.41
2022-07-25T02:18:48.458Z,5.53
2022-07-25T02:19:50.295Z,5.29
2022-07-25T02:20:51.996Z,5.65
2022-07-25T02:21:53.774Z,6.19
2022-07-25T02:22:55.559Z,6.37
2022-07-25T02:23:57.223Z,5.67
2022-07-25T02:24:58.951Z,5.89
2022-07-25T02:26:00.627Z,6.41
2022-07-25T02:27:02.343Z,5.97
2022-07-25T02:28:04.360Z,5.59
2022-07-25T02:29:06.092Z,6.13
2022-07-25T02:30:08.405Z,5.92
2022-07-25T02:31:10.605Z,6.19
2022-07-25T02:32:12.339Z,6.49
2022-07-25T02:33:14.076Z,5.78
2022-07-25T02:34:16.160Z,6.32
2022-07-25T02:35:17.911Z,6.18
2022-07-25T02:36:19.735Z,6.27
2022-07-25T02:37:21.399Z,6.20
2022-07-25T02:38:23.226Z,5.70
2022-07-25T02:39:25.379Z,6.52
2022-07-25T02:40:27.165Z,6.29
2022-07-25T02:41:28.855Z,6.41
2022-07-25T02:42:30.546Z,6.51
2022-07-25T02:43:32.289Z,5.61
2022-07-25T02:44:33.986Z,6.27
2022-07-25T02:45:35.752Z,6.17
2022-07-25T02:46:37.522Z,6.44
2022-07-25T02:47:39.316Z,6.17
2022-07-25T02:48:41.294Z,6.44
2022-07-25T02:49:43.072Z,5.98
2022-07-25T02:50:44.752Z,6.28
2022-07-25T02:51:46.429Z,5.71
2022-07-25T02:52:48.202Z,6.18
2022-07-25T02:54:09.230Z,6.50
2022-07-25T02:55:12.055Z,6.24
2022-07-25T02:56:14.225Z,5.90
2022-07-25T02:57:17.184Z,6.28
2022-07-25T02:58:18.880Z,6.40
2022-07-25T02:59:20.562Z,5.98
2022-07-25T03:00:22.732Z,5.61
2022-07-25T03:01:25.123Z,5.54
2022-07-25T03:02:27.001Z,6.06
2022-07-25T03:03:29.027Z,5.56
2022-07-25T03:04:31.319Z,5.26
2022-07-25T03:05:33.263Z,5.66
2022-07-25T03:06:35.010Z,5.44
2022-07-25T03:07:37.261Z,6.02
2022-07-25T03:08:38.939Z,5.56
2022-07-25T03:09:40.713Z,5.82
2022-07-25T03:10:42.795Z,5.82
2022-07-25T03:11:44.465Z,5.60
2022-07-25T03:12:46.215Z,5.77
2022-07-25T03:13:47.978Z,5.66
2022-07-25T03:14:50.536Z,5.75
2022-07-25T03:15:52.223Z,5.71
2022-07-25T03:16:54.588Z,5.50
2022-07-25T03:17:56.355Z,5.42
2022-07-25T03:18:57.990Z,5.77
2022-07-25T03:19:59.881Z,5.28
2022-07-25T03:21:02.213Z,6.12
2022-07-25T03:22:03.891Z,5.67
2022-07-25T03:23:05.665Z,5.31
2022-07-25T03:24:07.703Z,5.50
2022-07-25T03:25:15.615Z,4.84
2022-07-25T03:26:23.314Z,5.62
2022-07-25T03:27:26.909Z,5.95
2022-07-25T03:28:28.553Z,5.36
2022-07-25T03:29:30.190Z,5.72
2022-07-25T03:30:32.053Z,5.90
2022-07-25T03:31:34.470Z,5.76
2022-07-25T03:32:36.253Z,5.77
2022-07-25T03:33:37.902Z,5.49
2022-07-25T03:34:39.597Z,6.34
2022-07-25T03:35:41.452Z,6.03
2022-07-25T03:36:43.286Z,6.03
2022-07-25T03:37:45.605Z,5.92
2022-07-25T03:38:47.311Z,6.16
2022-07-25T03:39:49.166Z,6.35
2022-07-25T03:40:51.077Z,6.14
2022-07-25T03:41:53.017Z,6.46
2022-07-25T03:42:55.025Z,7.08
2022-07-25T03:43:56.696Z,7.32
2022-07-25T03:44:58.414Z,7.71
2022-07-25T03:46:00.245Z,7.96
2022-07-25T03:47:01.935Z,7.85
2022-07-25T03:48:03.804Z,8.60
2022-07-25T03:49:05.790Z,9.10
2022-07-25T03:50:07.787Z,9.20
2022-07-25T03:51:09.600Z,8.75
2022-07-25T03:52:11.278Z,8.87
2022-07-25T03:53:12.960Z,9.15
2022-07-25T03:54:15.235Z,8.54
2022-07-25T03:55:16.889Z,8.01
2022-07-25T03:56:18.935Z,8.97
2022-07-25T03:57:20.639Z,8.26
2022-07-25T03:58:22.514Z,8.63
2022-07-25T03:59:24.258Z,8.81
2022-07-25T04:00:25.991Z,7.99
2022-07-25T04:01:29.281Z,7.94
2022-07-25T04:02:31.049Z,7.84
2022-07-25T04:03:33.074Z,8.02
2022-07-25T04:04:34.798Z,8.30
2022-07-25T04:05:36.459Z,7.49
2022-07-25T04:06:39.850Z,8.35
2022-07-25T04:07:41.513Z,8.23
2022-07-25T04:08:43.169Z,7.82
2022-07-25T04:09:44.960Z,7.61
2022-07-25T04:10:46.661Z,7.34
2022-07-25T04:11:48.686Z,7.07
2022-07-25T04:12:50.377Z,6.82
2022-07-25T04:13:52.110Z,7.77
2022-07-25T04:14:53.819Z,7.38
2022-07-25T04:15:55.674Z,7.19
2022-07-25T04:17:00.242Z,7.90
2022-07-25T04:18:02.016Z,7.48
2022-07-25T04:19:06.287Z,7.28
2022-07-25T04:20:08.664Z,7.48
2022-07-25T04:21:10.865Z,7.37
2022-07-25T04:22:12.674Z,7.77
2022-07-25T04:23:14.375Z,7.32
2022-07-25T04:24:16.051Z,7.37
2022-07-25T04:25:17.999Z,7.60
2022-07-25T04:26:20.524Z,7.49
2022-07-25T04:27:22.298Z,7.97
2022-07-25T04:28:27.165Z,7.55
2022-07-25T04:29:29.177Z,7.15
2022-07-25T04:30:31.125Z,7.10
2022-07-25T04:31:32.884Z,7.61
2022-07-25T04:32:34.586Z,7.15
2022-07-25T04:33:40.704Z,7.66
2022-07-25T04:34:43.772Z,7.61
2022-07-25T04:35:45.680Z,8.14
2022-07-25T04:36:47.352Z,8.03
2022-07-25T04:37:49.632Z,8.22
2022-07-25T04:38:51.522Z,7.91
2022-07-25T04:39:53.208Z,8.20
2022-07-25T04:40:54.887Z,8.13
2022-07-25T04:41:56.595Z,8.11
2022-07-25T04:42:58.367Z,7.66
2022-07-25T04:44:00.136Z,7.65
2022-07-25T04:45:01.800Z,7.72
2022-07-25T04:46:03.571Z,7.88
2022-07-25T04:47:05.779Z,7.54
2022-07-25T04:48:07.665Z,7.40
2022-07-25T04:49:09.494Z,8.11
2022-07-25T04:50:11.400Z,7.47
2022-07-25T04:51:13.142Z,7.86
2022-07-25T04:52:14.909Z,7.77
2022-07-25T04:53:16.814Z,7.23
2022-07-25T04:54:18.509Z,6.97
2022-07-25T04:55:20.281Z,7.48
2022-07-25T04:56:21.919Z,7.09
2022-07-25T04:57:23.684Z,7.86
2022-07-25T04:58:25.392Z,7.24
2022-07-25T04:59:27.197Z,7.28
2022-07-25T05:00:28.906Z,7.38
2022-07-25T05:01:30.648Z,7.44
2022-07-25T05:02:32.598Z,7.37
2022-07-25T05:03:34.653Z,7.26
2022-07-25T05:04:36.363Z,7.34
2022-07-25T05:05:46.521Z,6.93
2022-07-25T05:06:48.261Z,7.66
2022-07-25T05:07:55.725Z,8.08
2022-07-25T05:08:57.392Z,7.70
2022-07-25T05:09:59.113Z,8.61
2022-07-25T05:11:00.901Z,7.96
2022-07-25T05:12:02.567Z,7.52
2022-07-25T05:13:04.842Z,7.43
2022-07-25T05:14:06.811Z,7.65
2022-07-25T05:15:09.440Z,7.63
2022-07-25T05:16:11.167Z,7.59
2022-07-25T05:17:12.915Z,7.24
2022-07-25T05:18:14.808Z,7.84
2022-07-25T05:19:16.582Z,8.14
2022-07-25T05:20:18.385Z,7.56
2022-07-25T05:21:20.097Z,7.42
2022-07-25T05:22:25.186Z,7.67
2022-07-25T05:23:30.239Z,7.50
2022-07-25T05:24:36.084Z,7.82
2022-07-25T05:25:37.796Z,7.52
2022-07-25T05:26:39.505Z,7.21
2022-07-25T05:27:41.711Z,7.01
2022-07-25T05:28:43.375Z,7.39
2022-07-25T05:29:45.107Z,7.26
2022-07-25T05:30:46.819Z,7.40
2022-07-25T05:31:48.649Z,6.65
2022-07-25T05:32:50.364Z,6.83
2022-07-25T05:33:52.136Z,6.70
2022-07-25T05:34:53.845Z,6.42
2022-07-25T05:35:55.539Z,5.97
2022-07-25T05:36:57.224Z,6.00
2022-07-25T05:37:58.924Z,5.94
2022-07-25T05:39:00.793Z,5.99
2022-07-25T05:40:03.057Z,6.37
2022-07-25T05:41:05.396Z,5.46
2022-07-25T05:42:07.978Z,5.85
2022-07-25T05:43:09.629Z,5.15
2022-07-25T05:44:11.287Z,5.47
2022-07-25T05:45:13.009Z,5.28
2022-07-25T05:46:15.586Z,5.44
2022-07-25T05:47:17.468Z,5.09
2022-07-25T05:48:19.152Z,5.03
2022-07-25T05:49:20.848Z,5.63
2022-07-25T05:50:22.715Z,5.62
2022-07-25T05:51:27.463Z,5.59
2022-07-25T05:52:29.419Z,5.57
2022-07-25T05:53:31.271Z,6.04
2022-07-25T05:54:34.173Z,5.67
2022-07-25T05:55:35.878Z,6.00
2022-07-25T05:56:42.622Z,6.16
2022-07-25T05:57:44.324Z,5.79
2022-07-25T05:58:46.488Z,5.70
2022-07-25T05:59:48.210Z,5.43
2022-07-25T06:00:51.156Z,5.47
2022-07-25T06:01:52.979Z,4.77
2022-07-25T06:02:58.636Z,4.88
2022-07-25T06:04:00.786Z,5.59
2022-07-25T06:05:02.458Z,5.42
2022-07-25T06:06:04.786Z,5.32
2022-07-25T06:07:06.466Z,5.29
2022-07-25T06:08:08.137Z,5.40
2022-07-25T06:09:09.778Z,5.25
2022-07-25T06:10:11.444Z,5.15
2022-07-25T06:11:13.201Z,5.49
2022-07-25T06:12:14.934Z,5.52
2022-07-25T06:13:16.615Z,5.18
2022-07-25T06:14:22.101Z,5.28
2022-07-25T06:15:26.979Z,5.00
2022-07-25T06:16:29.407Z,5.40
2022-07-25T06:17:32.700Z,4.93
2022-07-25T06:18:34.916Z,5.45
2022-07-25T06:19:36.678Z,4.99
2022-07-25T06:20:38.335Z,4.92
2022-07-25T06:21:40.063Z,4.76
2022-07-25T06:22:41.837Z,4.98
2022-07-25T06:23:43.531Z,4.73
2022-07-25T06:24:45.695Z,5.15
2022-07-25T06:25:50.156Z,4.94
2022-07-25T06:26:52.465Z,5.41
2022-07-25T06:27:54.145Z,5.30
2022-07-25T06:28:55.990Z,5.29
2022-07-25T06:29:57.782Z,5.43
2022-07-25T06:30:59.670Z,5.06
2022-07-25T06:32:02.348Z,4.97
2022-07-25T06:33:04.086Z,4.55
2022-07-25T06:34:06.134Z,4.76
2022-07-25T06:35:08.351Z,4.95
2022-07-25T06:36:10.571Z,5.06
2022-07-25T06:37:12.343Z,4.82
2022-07-25T06:38:14.079Z,4.46
2022-07-25T06:39:15.702Z,4.65
2022-07-25T06:40:17.376Z,4.80
2022-07-25T06:41:19.059Z,4.48
2022-07-25T06:42:20.753Z,4.30
2022-07-25T06:43:24.418Z,4.69
2022-07-25T06:44:27.262Z,4.85
2022-07-25T06:45:28.920Z,4.79
2022-07-25T06:46:32.845Z,4.31
2022-07-25T06:47:36.098Z,4.62
2022-07-25T06:48:38.273Z,4.46
2022-07-25T06:49:42.218Z,4.65
2022-07-25T06:50:44.728Z,4.09
2022-07-25T06:51:46.406Z,4.02
2022-07-25T06:52:49.009Z,4.33
2022-07-25T06:53:50.944Z,4.17
2022-07-25T06:54:52.679Z,3.92
2022-07-25T06:55:54.366Z,4.00
2022-07-25T06:56:56.066Z,4.25
2022-07-25T06:57:57.784Z,3.94
2022-07-25T06:59:00.493Z,3.99
2022-07-25T07:00:06.679Z,4.16
2022-07-25T07:01:08.436Z,3.97
2022-07-25T07:02:10.203Z,4.01
2022-07-25T07:03:11.899Z,4.05
2022-07-25T07:04:13.626Z,4.61
2022-07-25T07:05:15.361Z,3.91
2022-07-25T07:06:17.228Z,4.00
2022-07-25T07:07:19.171Z,4.01
2022-07-25T07:08:20.900Z,3.72
2022-07-25T07:09:22.741Z,3.86
2022-07-25T07:10:25.158Z,3.99
2022-07-25T07:11:26.821Z,3.97
2022-07-25T07:12:28.490Z,3.92
2022-07-25T07:13:31.188Z,4.70
2022-07-25T07:14:32.894Z,4.37
2022-07-25T07:15:35.003Z,4.49
2022-07-25T07:16:36.797Z,4.56
2022-07-25T07:17:38.777Z,4.44
2022-07-25T07:18:40.523Z,3.93
2022-07-25T07:19:44.581Z,4.34
2022-07-25T07:20:47.293Z,3.87
2022-07-25T07:21:51.355Z,3.77
2022-07-25T07:22:53.380Z,3.62
2022-07-25T07:23:55.043Z,3.90
2022-07-25T07:24:58.643Z,3.64
2022-07-25T07:26:00.337Z,4.10
2022-07-25T07:27:02.066Z,4.27
2022-07-25T07:28:04.445Z,3.60
2022-07-25T07:29:06.370Z,3.51
2022-07-25T07:30:09.580Z,4.01
2022-07-25T07:31:16.782Z,3.98
2022-07-25T07:32:19.363Z,3.79
2022-07-25T07:33:21.246Z,3.69
2022-07-25T07:34:22.986Z,3.85
2022-07-25T07:35:25.410Z,3.46
2022-07-25T07:36:29.554Z,3.67
2022-07-25T07:37:36.591Z,3.51
2022-07-25T07:38:40.551Z,3.75
2022-07-25T07:39:42.494Z,3.92
2022-07-25T07:40:44.303Z,3.80
2022-07-25T07:41:45.947Z,3.59
2022-07-25T07:42:50.204Z,3.50
2022-07-25T07:43:51.910Z,3.36
2022-07-25T07:44:53.578Z,3.29
2022-07-25T07:45:56.070Z,3.51
2022-07-25T07:47:01.648Z,3.47
2022-07-25T07:48:03.505Z,3.38
2022-07-25T07:49:05.608Z,3.15
2022-07-25T07:50:08.682Z,3.33
2022-07-25T07:51:10.371Z,3.34
2022-07-25T07:52:12.011Z,3.46
2022-07-25T07:53:13.656Z,3.42
2022-07-25T07:54:33.982Z,3.49
2022-07-25T07:55:44.324Z,3.52
2022-07-25T07:56:46.326Z,3.52
2022-07-25T07:57:48.206Z,3.31
2022-07-25T07:58:50.480Z,3.66
2022-07-25T07:59:52.142Z,3.69
2022-07-25T08:00:54.361Z,3.15
2022-07-25T08:01:56.111Z,3.85
2022-07-25T08:02:59.772Z,3.48
2022-07-25T08:04:01.740Z,3.04
2022-07-25T08:05:03.657Z,3.34
2022-07-25T08:06:05.746Z,3.33
2022-07-25T08:07:07.542Z,3.63
2022-07-25T08:08:12.043Z,3.45
2022-07-25T08:09:13.894Z,3.25
2022-07-25T08:10:15.958Z,3.26
2022-07-25T08:11:17.588Z,3.38
2022-07-25T08:12:21.041Z,3.46
2022-07-25T08:13:25.729Z,3.66
2022-07-25T08:14:27.367Z,3.21
2022-07-25T08:15:29.393Z,3.05
2022-07-25T08:16:31.166Z,3.38
2022-07-25T08:17:32.922Z,3.20
2022-07-25T08:18:35.980Z,3.27
2022-07-25T08:19:37.623Z,3.60
2022-07-25T08:20:39.881Z,3.27
2022-07-25T08:21:41.566Z,3.23
2022-07-25T08:22:45.971Z,3.25
2022-07-25T08:23:48.015Z,3.20
2022-07-25T08:24:49.952Z,3.25
2022-07-25T08:25:52.441Z,3.13
2022-07-25T08:26:54.112Z,3.39
2022-07-25T08:27:55.896Z,3.32
2022-07-25T08:29:17.711Z,3.19
2022-07-25T08:30:19.407Z,3.41
2022-07-25T08:31:21.192Z,3.29
2022-07-25T08:32:22.947Z,3.37
2022-07-25T08:33:25.478Z,3.41
2022-07-25T08:34:27.117Z,3.16
2022-07-25T08:35:30.853Z,3.35
2022-07-25T08:36:34.828Z,3.48
2022-07-25T08:37:36.701Z,3.25
2022-07-25T08:38:38.487Z,3.37
2022-07-25T08:39:41.623Z,2.96
2022-07-25T08:40:43.456Z,3.41
2022-07-25T08:41:46.058Z,3.47
2022-07-25T08:42:48.378Z,3.04
2022-07-25T08:43:51.724Z,3.16
2022-07-25T08:44:59.945Z,2.94
2022-07-25T08:46:02.501Z,3.23
2022-07-25T08:47:04.956Z,3.09
2022-07-25T08:48:11.533Z,2.86
2022-07-25T08:49:13.667Z,2.85
2022-07-25T08:50:18.272Z,2.92
2022-07-25T08:51:20.466Z,2.90
2022-07-25T08:52:23.422Z,3.12
2022-07-25T08:53:34.675Z,2.85
2022-07-25T08:54:37.416Z,2.97
2022-07-25T08:55:39.586Z,3.18
2022-07-25T08:56:41.283Z,2.92
2022-07-25T08:57:46.366Z,2.94
2022-07-25T08:58:49.414Z,3.06
2022-07-25T08:59:51.128Z,3.09
2022-07-25T09:00:52.906Z,3.15
2022-07-25T09:01:54.578Z,3.23
2022-07-25T09:03:00.565Z,2.94
2022-07-25T09:04:03.893Z,2.97
2022-07-25T09:05:06.298Z,3.09
2022-07-25T09:06:19.268Z,2.87
2022-07-25T09:07:32.677Z,3.15
2022-07-25T09:08:34.365Z,3.03
2022-07-25T09:09:39.538Z,2.72
2022-07-25T09:10:47.117Z,2.84
2022-07-25T09:11:49.995Z,3.03
2022-07-25T09:12:57.275Z,2.82
2022-07-25T09:14:01.514Z,2.96
2022-07-25T09:15:03.535Z,2.67
2022-07-25T09:16:06.020Z,2.90
2022-07-25T09:17:21.857Z,2.97
2022-07-25T09:18:27.294Z,2.76
2022-07-25T09:19:29.107Z,2.65
2022-07-25T09:20:45.422Z,2.65
2022-07-25T09:22:03.555Z,3.01
2022-07-25T09:23:06.144Z,2.76
2022-07-25T09:24:15.930Z,2.87
2022-07-25T09:25:26.643Z,2.84
2022-07-25T09:26:28.310Z,2.99
2022-07-25T09:27:34.499Z,2.69
2022-07-25T09:28:47.196Z,2.76
2022-07-25T09:29:49.208Z,2.60
2022-07-25T09:30:57.306Z,2.79
2022-07-25T09:32:01.450Z,2.74
2022-07-25T09:33:03.122Z,3.04
2022-07-25T09:34:08.470Z,2.74
2022-07-25T09:35:10.517Z,3.08
2022-07-25T09:36:12.759Z,2.98
2022-07-25T09:37:17.591Z,2.90
2022-07-25T09:38:20.914Z,2.73
2022-07-25T09:39:46.037Z,2.81
2022-07-25T09:41:01.456Z,2.63
2022-07-25T09:42:14.803Z,2.89
2022-07-25T09:43:16.630Z,2.66
2022-07-25T09:44:21.644Z,3.09
2022-07-25T09:45:26.012Z,3.04
2022-07-25T09:46:32.469Z,2.81
2022-07-25T09:47:36.782Z,2.88
2022-07-25T09:48:40.717Z,2.75
2022-07-25T09:49:44.906Z,2.80
2022-07-25T09:50:47.037Z,2.92
2022-07-25T09:51:48.824Z,2.79
2022-07-25T09:52:53.191Z,3.02
2022-07-25T09:53:54.993Z,2.69
2022-07-25T09:54:56.674Z,3.00
2022-07-25T09:55:58.989Z,2.71
2022-07-25T09:57:00.703Z,3.31
2022-07-25T09:58:02.408Z,2.74
2022-07-25T09:59:05.705Z,3.08
2022-07-25T10:00:09.260Z,2.65
2022-07-25T10:01:22.613Z,2.67
2022-07-25T10:02:40.733Z,2.86
2022-07-25T10:03:48.256Z,2.85
2022-07-25T10:04:56.791Z,2.86
2022-07-25T10:06:20.783Z,2.68
2022-07-25T10:07:28.225Z,3.15
2022-07-25T10:08:37.873Z,2.94
2022-07-25T10:09:48.735Z,2.62
2022-07-25T10:10:50.675Z,3.04
2022-07-25T10:12:10.124Z,2.90
2022-07-25T10:13:16.929Z,2.61
2022-07-25T10:14:19.655Z,2.77
2022-07-25T10:15:21.439Z,3.18
2022-07-25T10:16:27.417Z,2.86
2022-07-25T10:17:29.274Z,2.43
2022-07-25T10:18:31.742Z,3.05
2022-07-25T10:19:50.053Z,2.64
2022-07-25T10:21:25.037Z,2.79
2022-07-25T10:22:57.530Z,2.81
2022-07-25T10:24:06.353Z,3.03
2022-07-25T10:25:14.590Z,2.92
2022-07-25T10:26:16.482Z,3.04
2022-07-25T10:27:23.813Z,3.15
2022-07-25T10:28:48.096Z,2.79
2022-07-25T10:29:54.205Z,2.79
2022-07-25T10:30:58.976Z,2.54
2022-07-25T10:32:11.547Z,3.28
2022-07-25T10:33:17.667Z,3.11
2022-07-25T10:34:33.285Z,3.09
2022-07-25T10:35:35.415Z,3.07
2022-07-25T10:36:51.034Z,3.07
2022-07-25T10:37:55.879Z,2.89
2022-07-25T10:39:01.087Z,2.84
2022-07-25T10:40:04.008Z,2.84
2022-07-25T10:41:08.899Z,2.85
2022-07-25T10:42:21.866Z,2.87
2022-07-25T10:43:25.576Z,3.00
2022-07-25T10:44:39.296Z,2.75
2022-07-25T10:45:52.914Z,2.72
2022-07-25T10:47:09.099Z,2.94
2022-07-25T10:48:21.157Z,2.81
2022-07-25T10:49:32.156Z,2.94
2022-07-25T10:50:54.331Z,2.67
2022-07-25T10:51:59.161Z,2.84
2022-07-25T10:53:01.638Z,2.82
2022-07-25T10:54:14.946Z,2.58
2022-07-25T10:55:23.975Z,2.53
2022-07-25T10:56:28.807Z,2.75
2022-07-25T10:57:32.191Z,2.83
2022-07-25T10:58:44.513Z,3.03
2022-07-25T10:59:46.820Z,2.24
2022-07-25T11:00:48.499Z,2.64
2022-07-25T11:01:51.299Z,2.69
2022-07-25T11:02:57.417Z,2.70
2022-07-25T11:04:05.618Z,2.82
2022-07-25T11:05:07.601Z,2.69
2022-07-25T11:06:09.321Z,2.76
2022-07-25T11:07:14.676Z,2.59
2022-07-25T11:08:22.254Z,2.37
2022-07-25T11:09:28.292Z,2.53
2022-07-25T11:10:30.483Z,2.25
2022-07-25T11:11:42.110Z,2.65
2022-07-25T11:12:47.159Z,2.63
2022-07-25T11:13:50.149Z,2.69
2022-07-25T11:15:00.664Z,2.37
2022-07-25T11:16:02.392Z,2.49
2022-07-25T11:17:18.582Z,2.60
2022-07-25T11:18:40.699Z,2.49
2022-07-25T11:19:52.663Z,2.56
2022-07-25T11:21:06.892Z,2.35
2022-07-25T11:22:09.410Z,2.43
2022-07-25T11:23:11.121Z,2.34
2022-07-25T11:24:13.467Z,2.65
2022-07-25T11:25:15.167Z,2.74
2022-07-25T11:26:16.846Z,2.64
2022-07-25T11:27:24.524Z,2.73
2022-07-25T11:28:40.447Z,2.56
2022-07-25T11:29:42.303Z,2.60
2022-07-25T11:30:44.023Z,2.92
2022-07-25T11:31:53.298Z,2.32
2022-07-25T11:32:57.981Z,2.58
2022-07-25T11:33:59.927Z,2.46
2022-07-25T11:35:01.843Z,2.43
2022-07-25T11:36:04.856Z,2.36
2022-07-25T11:37:09.975Z,2.53
2022-07-25T11:38:14.826Z,2.45
2022-07-25T11:39:19.009Z,2.55
2022-07-25T11:40:22.670Z,2.23
2022-07-25T11:41:30.885Z,2.25
2022-07-25T11:42:47.840Z,2.36
2022-07-25T11:43:49.755Z,2.46
2022-07-25T11:44:53.045Z,2.19
2022-07-25T11:46:04.368Z,2.46
2022-07-25T11:47:09.516Z,2.57
2022-07-25T11:48:13.441Z,2.15
2022-07-25T11:49:15.324Z,2.15
2022-07-25T11:50:17.470Z,2.19
2022-07-25T11:51:19.682Z,2.45
2022-07-25T11:52:34.800Z,2.40
2022-07-25T11:53:42.206Z,2.12
2022-07-25T11:54:55.034Z,2.56
2022-07-25T11:55:56.704Z,2.35
2022-07-25T11:56:58.633Z,2.17
2022-07-25T11:58:03.482Z,2.14
2022-07-25T11:59:05.566Z,2.04
2022-07-25T12:00:18.583Z,2.17
2022-07-25T12:01:20.252Z,2.34
2022-07-25T12:02:28.215Z,2.20
2022-07-25T12:03:38.184Z,2.16
2022-07-25T12:04:40.002Z,2.35
2022-07-25T12:05:42.027Z,2.23
2022-07-25T12:06:45.655Z,2.22
2022-07-25T12:07:53.116Z,1.89
2022-07-25T12:08:54.876Z,1.85
2022-07-25T12:09:57.987Z,1.92
2022-07-25T12:11:00.690Z,2.12
2022-07-25T12:12:04.635Z,2.33
2022-07-25T12:13:08.760Z,1.97
2022-07-25T12:14:11.074Z,2.07
2022-07-25T12:15:16.359Z,1.97
2022-07-25T12:16:18.250Z,1.96
2022-07-25T12:17:19.991Z,2.06
2022-07-25T12:18:21.755Z,1.99
2022-07-25T12:19:23.485Z,1.98
2022-07-25T12:20:38.179Z,2.09
2022-07-25T12:21:39.824Z,2.03
2022-07-25T12:22:41.937Z,1.95
2022-07-25T12:23:43.849Z,2.09
2022-07-25T12:24:45.507Z,1.95
2022-07-25T12:25:47.883Z,2.03
2022-07-25T12:26:49.578Z,1.77
2022-07-25T12:27:51.691Z,2.17
2022-07-25T12:28:53.472Z,2.21
2022-07-25T12:29:55.172Z,2.09
2022-07-25T12:30:57.094Z,2.14
2022-07-25T12:31:59.092Z,2.03
2022-07-25T12:33:01.356Z,2.13
2022-07-25T12:34:03.909Z,2.17
2022-07-25T12:35:08.457Z,2.13
2022-07-25T12:36:13.819Z,2.25
2022-07-25T12:37:15.540Z,2.03
2022-07-25T12:38:17.495Z,2.25
2022-07-25T12:39:19.366Z,1.99
2022-07-25T12:40:21.984Z,2.19
2022-07-25T12:41:23.717Z,1.99
2022-07-25T12:42:27.125Z,2.14
2022-07-25T12:43:28.823Z,2.17
2022-07-25T12:44:30.509Z,1.89
2022-07-25T12:45:32.846Z,2.11
2022-07-25T12:46:36.024Z,2.01
2022-07-25T12:47:38.210Z,2.15
2022-07-25T12:48:40.037Z,1.87
2022-07-25T12:49:41.915Z,1.74
2022-07-25T12:50:44.623Z,2.26
2022-07-25T12:51:46.395Z,1.93
2022-07-25T12:52:48.347Z,1.82
2022-07-25T12:53:50.205Z,1.90
2022-07-25T12:54:52.104Z,1.88
2022-07-25T12:55:53.791Z,1.76
2022-07-25T12:56:55.560Z,1.78
2022-07-25T12:57:57.334Z,2.14
2022-07-25T12:58:59.079Z,1.94
2022-07-25T13:00:00.951Z,2.20
2022-07-25T13:01:03.404Z,1.85
2022-07-25T13:02:06.007Z,1.70
2022-07-25T13:03:07.800Z,1.82
2022-07-25T13:04:09.470Z,2.04
2022-07-25T13:05:11.502Z,2.02
2022-07-25T13:06:13.299Z,1.90
2022-07-25T13:07:16.166Z,1.93
2022-07-25T13:08:18.273Z,1.95
2022-07-25T13:09:20.038Z,1.90
2022-07-25T13:10:22.172Z,2.06
2022-07-25T13:11:23.849Z,2.00
2022-07-25T13:12:25.555Z,1.99
2022-07-25T13:13:27.266Z,1.90
2022-07-25T13:14:28.922Z,1.88
2022-07-25T13:15:30.717Z,2.02
2022-07-25T13:16:34.560Z,2.09
2022-07-25T13:17:37.271Z,1.85
2022-07-25T13:18:38.993Z,1.71
2022-07-25T13:19:40.698Z,2.01
2022-07-25T13:20:42.419Z,1.83
2022-07-25T13:21:44.591Z,1.94
2022-07-25T13:22:46.321Z,1.84
2022-07-25T13:23:48.031Z,1.74
2022-07-25T13:24:49.936Z,2.00
2022-07-25T13:25:52.678Z,2.00
2022-07-25T13:26:54.591Z,1.84
2022-07-25T13:27:56.257Z,1.84
2022-07-25T13:29:00.115Z,2.08
2022-07-25T13:30:01.887Z,1.90
2022-07-25T13:31:06.897Z,2.02
2022-07-25T13:32:08.734Z,1.72
2022-07-25T13:33:11.026Z,1.54
2022-07-25T13:34:12.723Z,1.95
2022-07-25T13:35:17.773Z,2.18
2022-07-25T13:36:22.219Z,2.27
2022-07-25T13:37:24.214Z,1.69
2022-07-25T13:38:26.109Z,1.86
2022-07-25T13:39:27.927Z,1.88
2022-07-25T13:40:29.733Z,2.06
2022-07-25T13:41:32.019Z,2.24
2022-07-25T13:42:33.792Z,2.30
2022-07-25T13:43:35.569Z,1.81
2022-07-25T13:44:37.256Z,2.02
2022-07-25T13:45:41.278Z,1.92
2022-07-25T13:46:46.007Z,1.87
2022-07-25T13:47:56.343Z,1.75
2022-07-25T13:49:08.418Z,1.94
2022-07-25T13:50:10.463Z,1.96
2022-07-25T13:51:12.524Z,1.83
2022-07-25T13:52:14.398Z,1.99
2022-07-25T13:53:16.218Z,1.96
2022-07-25T13:54:17.892Z,1.90
2022-07-25T13:55:20.863Z,1.74
2022-07-25T13:56:22.654Z,2.23
2022-07-25T13:57:24.584Z,1.94
2022-07-25T13:58:27.171Z,2.00
2022-07-25T13:59:28.875Z,1.94
2022-07-25T14:00:30.524Z,1.89
2022-07-25T14:01:32.328Z,1.95
2022-07-25T14:02:34.267Z,1.99
2022-07-25T14:03:36.863Z,2.02
2022-07-25T14:04:38.652Z,1.98